sensor_id;sensor_type;location;lat;lon;timestamp;P1;P2;P0
68698;PMS7003;55680;48.850;2.310;2023-04-24T00:00:19;0.25;0.25;0.00
68698;PMS7003;55680;48.850;2.310;2023-04-24T00:02:45;0.00;0.00;0.00
68698;PMS7003;55680;48.850;2.310;2023-04-24T00:05:14;1.50;0.00;0.00
68698;PMS7003;55680;48.850;2.310;2023-04-24T00:07:43;0.00;0.00;0.00
68698;PMS7003;55680;48.850;2.310;2023-04-24T00:10:09;0.00;0.00;0.00
68698;PMS7003;55680;48.850;2.310;2023-04-24T00:12:35;0.00;0.00;0.00
68698;PMS7003;55680;48.850;2.310;2023-04-24T00:15:01;0.00;0.00;0.00
68698;PMS7003;55680;48.850;2.310;2023-04-24T00:17:27;0.00;0.00;0.00
68698;PMS7003;55680;48.850;2.310;2023-04-24T00:19:52;0.00;0.00;0.00
68698;PMS7003;55680;48.850;2.310;2023-04-24T00:22:23;0.00;0.00;0.00
68698;PMS7003;55680;48.850;2.310;2023-04-24T00:24:49;0.25;0.25;0.00
68698;PMS7003;55680;48.850;2.310;2023-04-24T00:27:14;0.00;0.00;0.00
68698;PMS7003;55680;48.850;2.310;2023-04-24T00:29:40;0.00;0.00;0.00
68698;PMS7003;55680;48.850;2.310;2023-04-24T00:32:05;0.00;0.00;0.00
68698;PMS7003;55680;48.850;2.310;2023-04-24T00:34:30;0.00;0.00;0.00
68698;PMS7003;55680;48.850;2.310;2023-04-24T00:36:57;0.00;0.00;0.00
68698;PMS7003;55680;48.850;2.310;2023-04-24T00:39:22;1.00;0.00;0.00
68698;PMS7003;55680;48.850;2.310;2023-04-24T00:41:48;0.00;0.00;0.00
68698;PMS7003;55680;48.850;2.310;2023-04-24T00:44:14;0.25;0.00;0.00
68698;PMS7003;55680;48.850;2.310;2023-04-24T00:46:39;0.00;0.00;0.00
68698;PMS7003;55680;48.850;2.310;2023-04-24T00:49:05;0.00;0.00;0.00
68698;PMS7003;55680;48.850;2.310;2023-04-24T00:51:31;0.00;0.00;0.00
68698;PMS7003;55680;48.850;2.310;2023-04-24T00:53:57;0.00;0.00;0.00
68698;PMS7003;55680;48.850;2.310;2023-04-24T00:56:23;0.00;0.00;0.00
68698;PMS7003;55680;48.850;2.310;2023-04-24T00:58:49;0.00;0.00;0.00
68698;PMS7003;55680;48.850;2.310;2023-04-24T01:01:14;4.00;0.00;0.00
68698;PMS7003;55680;48.850;2.310;2023-04-24T01:03:40;0.00;0.00;0.00
68698;PMS7003;55680;48.850;2.310;2023-04-24T01:06:05;1.75;0.00;0.00
68698;PMS7003;55680;48.850;2.310;2023-04-24T01:08:31;0.00;0.00;0.00
68698;PMS7003;55680;48.850;2.310;2023-04-24T01:10:57;0.00;0.00;0.00
68698;PMS7003;55680;48.850;2.310;2023-04-24T01:13:23;1.00;1.00;0.00
68698;PMS7003;55680;48.850;2.310;2023-04-24T01:15:48;0.00;0.00;0.00
68698;PMS7003;55680;48.850;2.310;2023-04-24T01:18:14;0.00;0.00;0.00
68698;PMS7003;55680;48.850;2.310;2023-04-24T01:20:40;0.00;0.00;0.00
68698;PMS7003;55680;48.850;2.310;2023-04-24T01:23:06;0.00;0.00;0.00
68698;PMS7003;55680;48.850;2.310;2023-04-24T01:25:32;0.00;0.00;0.00
68698;PMS7003;55680;48.850;2.310;2023-04-24T01:27:58;0.00;0.00;0.00
68698;PMS7003;55680;48.850;2.310;2023-04-24T01:30:24;0.00;0.00;0.00
68698;PMS7003;55680;48.850;2.310;2023-04-24T01:32:49;0.00;0.00;0.00
68698;PMS7003;55680;48.850;2.310;2023-04-24T01:35:15;0.00;0.00;0.00
68698;PMS7003;55680;48.850;2.310;2023-04-24T01:37:40;0.00;0.00;0.00
68698;PMS7003;55680;48.850;2.310;2023-04-24T01:40:06;0.00;0.00;0.00
68698;PMS7003;55680;48.850;2.310;2023-04-24T01:42:32;0.00;0.00;0.00
68698;PMS7003;55680;48.850;2.310;2023-04-24T01:44:57;0.00;0.00;0.00
68698;PMS7003;55680;48.850;2.310;2023-04-24T01:47:23;0.00;0.00;0.00
68698;PMS7003;55680;48.850;2.310;2023-04-24T01:49:49;0.00;0.00;0.00
68698;PMS7003;55680;48.850;2.310;2023-04-24T01:52:15;0.00;0.00;0.00
68698;PMS7003;55680;48.850;2.310;2023-04-24T01:54:42;0.00;0.00;0.00
68698;PMS7003;55680;48.850;2.310;2023-04-24T01:57:08;0.00;0.00;0.00
68698;PMS7003;55680;48.850;2.310;2023-04-24T01:59:33;0.00;0.00;0.00
68698;PMS7003;55680;48.850;2.310;2023-04-24T02:02:01;0.00;0.00;0.00
68698;PMS7003;55680;48.850;2.310;2023-04-24T02:04:27;1.00;0.00;0.00
68698;PMS7003;55680;48.850;2.310;2023-04-24T02:06:52;2.00;2.00;0.75
68698;PMS7003;55680;48.850;2.310;2023-04-24T02:09:18;2.00;1.50;1.50
68698;PMS7003;55680;48.850;2.310;2023-04-24T02:11:43;0.00;0.00;0.00
68698;PMS7003;55680;48.850;2.310;2023-04-24T02:14:09;0.00;0.00;0.00
68698;PMS7003;55680;48.850;2.310;2023-04-24T02:16:34;1.50;0.50;0.25
68698;PMS7003;55680;48.850;2.310;2023-04-24T02:19:00;3.25;1.50;0.75
68698;PMS7003;55680;48.850;2.310;2023-04-24T02:21:26;0.00;0.00;0.00
68698;PMS7003;55680;48.850;2.310;2023-04-24T02:23:52;1.25;1.25;1.00
68698;PMS7003;55680;48.850;2.310;2023-04-24T02:26:18;0.75;0.00;0.00
68698;PMS7003;55680;48.850;2.310;2023-04-24T02:28:43;0.00;0.00;0.00
68698;PMS7003;55680;48.850;2.310;2023-04-24T02:31:09;0.00;0.00;0.00
68698;PMS7003;55680;48.850;2.310;2023-04-24T02:33:34;0.00;0.00;0.00
68698;PMS7003;55680;48.850;2.310;2023-04-24T02:36:00;0.00;0.00;0.00
68698;PMS7003;55680;48.850;2.310;2023-04-24T02:38:26;0.00;0.00;0.00
68698;PMS7003;55680;48.850;2.310;2023-04-24T02:40:51;0.00;0.00;0.00
68698;PMS7003;55680;48.850;2.310;2023-04-24T02:43:17;0.00;0.00;0.00
68698;PMS7003;55680;48.850;2.310;2023-04-24T02:45:42;0.00;0.00;0.00
68698;PMS7003;55680;48.850;2.310;2023-04-24T02:48:07;0.00;0.00;0.00
68698;PMS7003;55680;48.850;2.310;2023-04-24T02:50:33;0.00;0.00;0.00
68698;PMS7003;55680;48.850;2.310;2023-04-24T02:52:58;0.00;0.00;0.00
68698;PMS7003;55680;48.850;2.310;2023-04-24T02:55:24;0.00;0.00;0.00
68698;PMS7003;55680;48.850;2.310;2023-04-24T02:57:50;0.00;0.00;0.00
68698;PMS7003;55680;48.850;2.310;2023-04-24T03:00:15;1.00;0.00;0.00
68698;PMS7003;55680;48.850;2.310;2023-04-24T03:02:41;0.00;0.00;0.00
68698;PMS7003;55680;48.850;2.310;2023-04-24T03:05:07;0.00;0.00;0.00
68698;PMS7003;55680;48.850;2.310;2023-04-24T03:07:32;0.00;0.00;0.00
68698;PMS7003;55680;48.850;2.310;2023-04-24T03:09:58;0.00;0.00;0.00
68698;PMS7003;55680;48.850;2.310;2023-04-24T03:12:24;0.00;0.00;0.00
68698;PMS7003;55680;48.850;2.310;2023-04-24T03:14:49;0.00;0.00;0.00
68698;PMS7003;55680;48.850;2.310;2023-04-24T03:17:15;0.00;0.00;0.00
68698;PMS7003;55680;48.850;2.310;2023-04-24T03:19:40;0.00;0.00;0.00
68698;PMS7003;55680;48.850;2.310;2023-04-24T03:22:06;1.25;0.25;0.25
68698;PMS7003;55680;48.850;2.310;2023-04-24T03:24:31;0.00;0.00;0.00
68698;PMS7003;55680;48.850;2.310;2023-04-24T03:26:56;0.25;0.25;0.00
68698;PMS7003;55680;48.850;2.310;2023-04-24T03:29:22;0.00;0.00;0.00
68698;PMS7003;55680;48.850;2.310;2023-04-24T03:31:47;1.00;0.00;0.00
68698;PMS7003;55680;48.850;2.310;2023-04-24T03:34:13;0.00;0.00;0.00
68698;PMS7003;55680;48.850;2.310;2023-04-24T03:36:39;0.00;0.00;0.00
68698;PMS7003;55680;48.850;2.310;2023-04-24T03:39:04;0.00;0.00;0.00
68698;PMS7003;55680;48.850;2.310;2023-04-24T03:41:30;0.00;0.00;0.00
68698;PMS7003;55680;48.850;2.310;2023-04-24T03:43:55;0.00;0.00;0.00
68698;PMS7003;55680;48.850;2.310;2023-04-24T03:46:21;1.00;0.00;0.00
68698;PMS7003;55680;48.850;2.310;2023-04-24T03:48:46;0.00;0.00;0.00
68698;PMS7003;55680;48.850;2.310;2023-04-24T03:51:12;0.00;0.00;0.00
68698;PMS7003;55680;48.850;2.310;2023-04-24T03:53:37;0.00;0.00;0.00
68698;PMS7003;55680;48.850;2.310;2023-04-24T03:56:02;0.75;0.00;0.00
68698;PMS7003;55680;48.850;2.310;2023-04-24T03:58:28;1.00;1.00;0.00
68698;PMS7003;55680;48.850;2.310;2023-04-24T04:00:53;0.00;0.00;0.00
68698;PMS7003;55680;48.850;2.310;2023-04-24T04:03:19;0.00;0.00;0.00
68698;PMS7003;55680;48.850;2.310;2023-04-24T04:05:44;0.00;0.00;0.00
68698;PMS7003;55680;48.850;2.310;2023-04-24T04:08:09;0.25;0.00;0.00
68698;PMS7003;55680;48.850;2.310;2023-04-24T04:10:35;0.00;0.00;0.00
68698;PMS7003;55680;48.850;2.310;2023-04-24T04:13:00;0.00;0.00;0.00
68698;PMS7003;55680;48.850;2.310;2023-04-24T04:15:26;0.00;0.00;0.00
68698;PMS7003;55680;48.850;2.310;2023-04-24T04:17:51;2.00;1.00;0.00
68698;PMS7003;55680;48.850;2.310;2023-04-24T04:20:16;1.00;1.00;0.00
68698;PMS7003;55680;48.850;2.310;2023-04-24T04:22:42;0.00;0.00;0.00
68698;PMS7003;55680;48.850;2.310;2023-04-24T04:25:07;0.00;0.00;0.00
68698;PMS7003;55680;48.850;2.310;2023-04-24T04:27:33;0.00;0.00;0.00
68698;PMS7003;55680;48.850;2.310;2023-04-24T04:29:59;0.00;0.00;0.00
68698;PMS7003;55680;48.850;2.310;2023-04-24T04:32:29;2.50;1.00;1.00
68698;PMS7003;55680;48.850;2.310;2023-04-24T04:35:01;0.00;0.00;0.00
68698;PMS7003;55680;48.850;2.310;2023-04-24T04:37:29;0.00;0.00;0.00
68698;PMS7003;55680;48.850;2.310;2023-04-24T04:39:56;0.00;0.00;0.00
68698;PMS7003;55680;48.850;2.310;2023-04-24T04:42:25;0.00;0.00;0.00
68698;PMS7003;55680;48.850;2.310;2023-04-24T04:44:51;2.50;1.50;0.50
68698;PMS7003;55680;48.850;2.310;2023-04-24T04:47:20;0.00;0.00;0.00
68698;PMS7003;55680;48.850;2.310;2023-04-24T04:49:48;0.00;0.00;0.00
68698;PMS7003;55680;48.850;2.310;2023-04-24T04:52:13;0.00;0.00;0.00
68698;PMS7003;55680;48.850;2.310;2023-04-24T04:54:39;0.00;0.00;0.00
68698;PMS7003;55680;48.850;2.310;2023-04-24T04:57:04;2.00;0.00;0.00
68698;PMS7003;55680;48.850;2.310;2023-04-24T04:59:30;0.75;0.75;0.75
68698;PMS7003;55680;48.850;2.310;2023-04-24T05:01:56;0.00;0.00;0.00
68698;PMS7003;55680;48.850;2.310;2023-04-24T05:04:21;2.50;0.00;0.00
68698;PMS7003;55680;48.850;2.310;2023-04-24T05:06:46;0.00;0.00;0.00
68698;PMS7003;55680;48.850;2.310;2023-04-24T05:09:12;0.00;0.00;0.00
68698;PMS7003;55680;48.850;2.310;2023-04-24T05:11:37;0.00;0.00;0.00
68698;PMS7003;55680;48.850;2.310;2023-04-24T05:14:03;1.00;0.00;0.00
68698;PMS7003;55680;48.850;2.310;2023-04-24T05:16:28;0.00;0.00;0.00
68698;PMS7003;55680;48.850;2.310;2023-04-24T05:18:54;0.00;0.00;0.00
68698;PMS7003;55680;48.850;2.310;2023-04-24T05:21:19;1.00;0.00;0.00
68698;PMS7003;55680;48.850;2.310;2023-04-24T05:23:45;0.50;0.50;0.00
68698;PMS7003;55680;48.850;2.310;2023-04-24T05:26:10;0.00;0.00;0.00
68698;PMS7003;55680;48.850;2.310;2023-04-24T05:28:35;0.00;0.00;0.00
68698;PMS7003;55680;48.850;2.310;2023-04-24T05:31:01;0.50;0.00;0.00
68698;PMS7003;55680;48.850;2.310;2023-04-24T05:33:27;0.75;0.75;0.00
68698;PMS7003;55680;48.850;2.310;2023-04-24T05:35:52;0.00;0.00;0.00
68698;PMS7003;55680;48.850;2.310;2023-04-24T05:38:18;0.00;0.00;0.00
68698;PMS7003;55680;48.850;2.310;2023-04-24T05:40:44;4.50;0.00;0.00
68698;PMS7003;55680;48.850;2.310;2023-04-24T05:43:12;0.00;0.00;0.00
68698;PMS7003;55680;48.850;2.310;2023-04-24T05:45:38;0.00;0.00;0.00
68698;PMS7003;55680;48.850;2.310;2023-04-24T05:48:04;4.00;0.50;0.00
68698;PMS7003;55680;48.850;2.310;2023-04-24T05:50:29;0.00;0.00;0.00
68698;PMS7003;55680;48.850;2.310;2023-04-24T05:52:55;0.50;0.00;0.00
68698;PMS7003;55680;48.850;2.310;2023-04-24T05:55:23;1.00;0.00;0.00
68698;PMS7003;55680;48.850;2.310;2023-04-24T05:57:49;0.00;0.00;0.00
68698;PMS7003;55680;48.850;2.310;2023-04-24T06:00:14;1.00;0.00;0.00
68698;PMS7003;55680;48.850;2.310;2023-04-24T06:02:40;0.00;0.00;0.00
68698;PMS7003;55680;48.850;2.310;2023-04-24T06:05:06;3.25;0.50;0.00
68698;PMS7003;55680;48.850;2.310;2023-04-24T06:07:33;0.00;0.00;0.00
68698;PMS7003;55680;48.850;2.310;2023-04-24T06:09:58;1.00;1.00;0.00
68698;PMS7003;55680;48.850;2.310;2023-04-24T06:12:24;1.00;1.00;0.00
68698;PMS7003;55680;48.850;2.310;2023-04-24T06:14:50;3.00;0.25;0.00
68698;PMS7003;55680;48.850;2.310;2023-04-24T06:17:16;0.00;0.00;0.00
68698;PMS7003;55680;48.850;2.310;2023-04-24T06:19:41;1.50;1.00;0.75
68698;PMS7003;55680;48.850;2.310;2023-04-24T06:22:06;1.50;1.50;0.00
68698;PMS7003;55680;48.850;2.310;2023-04-24T06:24:33;1.00;1.00;0.00
68698;PMS7003;55680;48.850;2.310;2023-04-24T06:26:59;0.00;0.00;0.00
68698;PMS7003;55680;48.850;2.310;2023-04-24T06:29:26;0.75;0.75;0.00
68698;PMS7003;55680;48.850;2.310;2023-04-24T06:31:51;2.50;0.00;0.00
68698;PMS7003;55680;48.850;2.310;2023-04-24T06:34:17;0.00;0.00;0.00
68698;PMS7003;55680;48.850;2.310;2023-04-24T06:36:42;1.00;1.00;1.00
68698;PMS7003;55680;48.850;2.310;2023-04-24T06:39:07;1.00;1.00;0.00
68698;PMS7003;55680;48.850;2.310;2023-04-24T06:41:33;0.00;0.00;0.00
68698;PMS7003;55680;48.850;2.310;2023-04-24T06:43:59;0.00;0.00;0.00
68698;PMS7003;55680;48.850;2.310;2023-04-24T06:46:24;0.00;0.00;0.00
68698;PMS7003;55680;48.850;2.310;2023-04-24T06:48:51;1.00;1.00;0.00
68698;PMS7003;55680;48.850;2.310;2023-04-24T06:51:20;2.25;1.00;0.00
68698;PMS7003;55680;48.850;2.310;2023-04-24T06:53:47;3.25;2.00;0.00
68698;PMS7003;55680;48.850;2.310;2023-04-24T06:56:12;4.25;0.25;0.00
68698;PMS7003;55680;48.850;2.310;2023-04-24T06:58:38;1.00;1.00;0.25
68698;PMS7003;55680;48.850;2.310;2023-04-24T07:01:03;2.00;2.00;1.00
68698;PMS7003;55680;48.850;2.310;2023-04-24T07:03:29;1.25;1.25;1.25
68698;PMS7003;55680;48.850;2.310;2023-04-24T07:05:54;3.50;3.00;3.00
68698;PMS7003;55680;48.850;2.310;2023-04-24T07:08:19;3.00;1.75;1.00
68698;PMS7003;55680;48.850;2.310;2023-04-24T07:10:46;3.00;1.50;1.00
68698;PMS7003;55680;48.850;2.310;2023-04-24T07:13:12;2.00;2.00;1.00
68698;PMS7003;55680;48.850;2.310;2023-04-24T07:15:37;2.00;2.00;1.25
68698;PMS7003;55680;48.850;2.310;2023-04-24T07:18:03;8.75;5.75;4.00
68698;PMS7003;55680;48.850;2.310;2023-04-24T07:20:28;4.25;3.25;2.50
68698;PMS7003;55680;48.850;2.310;2023-04-24T07:22:54;5.00;5.00;3.00
68698;PMS7003;55680;48.850;2.310;2023-04-24T07:25:19;7.00;5.00;4.00
68698;PMS7003;55680;48.850;2.310;2023-04-24T07:27:45;5.75;3.25;1.75
68698;PMS7003;55680;48.850;2.310;2023-04-24T07:30:10;4.50;4.25;2.50
68698;PMS7003;55680;48.850;2.310;2023-04-24T07:32:36;7.75;5.50;3.50
68698;PMS7003;55680;48.850;2.310;2023-04-24T07:35:01;2.50;2.50;2.00
68698;PMS7003;55680;48.850;2.310;2023-04-24T07:37:27;1.00;1.00;1.00
68698;PMS7003;55680;48.850;2.310;2023-04-24T07:39:53;2.25;0.75;0.75
68698;PMS7003;55680;48.850;2.310;2023-04-24T07:42:18;6.00;4.75;3.00
68698;PMS7003;55680;48.850;2.310;2023-04-24T07:44:44;1.00;1.00;1.00
68698;PMS7003;55680;48.850;2.310;2023-04-24T07:47:10;2.00;2.00;2.00
68698;PMS7003;55680;48.850;2.310;2023-04-24T07:49:36;3.75;2.00;1.00
68698;PMS7003;55680;48.850;2.310;2023-04-24T07:52:01;0.00;0.00;0.00
68698;PMS7003;55680;48.850;2.310;2023-04-24T07:54:27;2.50;2.50;0.50
68698;PMS7003;55680;48.850;2.310;2023-04-24T07:56:53;2.50;0.75;0.00
68698;PMS7003;55680;48.850;2.310;2023-04-24T07:59:19;1.00;1.00;0.00
68698;PMS7003;55680;48.850;2.310;2023-04-24T08:01:44;3.75;3.25;1.50
68698;PMS7003;55680;48.850;2.310;2023-04-24T08:04:09;3.50;1.00;0.75
68698;PMS7003;55680;48.850;2.310;2023-04-24T08:06:35;4.50;3.00;2.00
68698;PMS7003;55680;48.850;2.310;2023-04-24T08:09:00;4.00;1.50;0.00
68698;PMS7003;55680;48.850;2.310;2023-04-24T08:11:26;3.75;2.50;0.75
68698;PMS7003;55680;48.850;2.310;2023-04-24T08:13:51;1.00;1.00;0.75
68698;PMS7003;55680;48.850;2.310;2023-04-24T08:16:17;2.00;0.75;0.00
68698;PMS7003;55680;48.850;2.310;2023-04-24T08:18:42;4.00;1.00;0.00
68698;PMS7003;55680;48.850;2.310;2023-04-24T08:21:07;3.00;3.00;1.00
68698;PMS7003;55680;48.850;2.310;2023-04-24T08:23:33;0.50;0.50;0.50
68698;PMS7003;55680;48.850;2.310;2023-04-24T08:25:58;0.25;0.25;0.00
68698;PMS7003;55680;48.850;2.310;2023-04-24T08:28:24;2.50;1.00;1.00
68698;PMS7003;55680;48.850;2.310;2023-04-24T08:30:49;6.00;3.00;1.00
68698;PMS7003;55680;48.850;2.310;2023-04-24T08:33:19;3.25;3.25;1.50
68698;PMS7003;55680;48.850;2.310;2023-04-24T08:35:47;5.00;4.00;3.00
68698;PMS7003;55680;48.850;2.310;2023-04-24T08:38:13;1.00;1.00;0.00
68698;PMS7003;55680;48.850;2.310;2023-04-24T08:40:38;3.50;3.50;2.00
68698;PMS7003;55680;48.850;2.310;2023-04-24T08:43:04;6.75;6.25;3.25
68698;PMS7003;55680;48.850;2.310;2023-04-24T08:45:30;1.25;1.00;1.00
68698;PMS7003;55680;48.850;2.310;2023-04-24T08:47:55;9.00;4.75;4.00
68698;PMS7003;55680;48.850;2.310;2023-04-24T08:50:22;7.25;6.50;4.00
68698;PMS7003;55680;48.850;2.310;2023-04-24T08:52:49;9.00;9.00;6.25
68698;PMS7003;55680;48.850;2.310;2023-04-24T08:55:15;9.25;8.75;7.00
68698;PMS7003;55680;48.850;2.310;2023-04-24T08:57:43;10.00;8.25;4.00
68698;PMS7003;55680;48.850;2.310;2023-04-24T09:00:10;11.25;9.00;6.00
68698;PMS7003;55680;48.850;2.310;2023-04-24T09:02:36;6.00;5.75;4.50
68698;PMS7003;55680;48.850;2.310;2023-04-24T09:05:01;8.50;7.00;5.25
68698;PMS7003;55680;48.850;2.310;2023-04-24T09:07:28;8.75;6.00;4.00
68698;PMS7003;55680;48.850;2.310;2023-04-24T09:09:55;6.50;2.50;2.00
68698;PMS7003;55680;48.850;2.310;2023-04-24T09:12:21;4.75;4.75;3.00
68698;PMS7003;55680;48.850;2.310;2023-04-24T09:14:47;6.75;5.00;4.25
68698;PMS7003;55680;48.850;2.310;2023-04-24T09:17:13;9.00;6.25;5.00
68698;PMS7003;55680;48.850;2.310;2023-04-24T09:19:38;8.00;6.25;4.50
68698;PMS7003;55680;48.850;2.310;2023-04-24T09:22:05;11.00;10.00;8.00
68698;PMS7003;55680;48.850;2.310;2023-04-24T09:24:31;10.00;8.50;6.00
68698;PMS7003;55680;48.850;2.310;2023-04-24T09:26:57;11.00;5.75;4.00
68698;PMS7003;55680;48.850;2.310;2023-04-24T09:29:32;9.25;9.00;5.75
68698;PMS7003;55680;48.850;2.310;2023-04-24T09:31:57;6.50;4.00;2.00
68698;PMS7003;55680;48.850;2.310;2023-04-24T09:34:24;8.00;6.75;3.75
68698;PMS7003;55680;48.850;2.310;2023-04-24T09:36:51;7.25;5.00;3.00
68698;PMS7003;55680;48.850;2.310;2023-04-24T09:39:17;7.50;7.50;5.50
68698;PMS7003;55680;48.850;2.310;2023-04-24T09:41:49;6.25;6.25;4.25
68698;PMS7003;55680;48.850;2.310;2023-04-24T09:44:16;12.25;8.00;5.00
68698;PMS7003;55680;48.850;2.310;2023-04-24T09:46:44;4.50;4.50;4.25
68698;PMS7003;55680;48.850;2.310;2023-04-24T09:49:12;7.75;7.75;5.00
68698;PMS7003;55680;48.850;2.310;2023-04-24T09:51:38;5.50;5.50;4.75
68698;PMS7003;55680;48.850;2.310;2023-04-24T09:54:04;5.00;3.25;2.00
68698;PMS7003;55680;48.850;2.310;2023-04-24T09:56:32;3.25;3.25;2.00
68698;PMS7003;55680;48.850;2.310;2023-04-24T09:59:07;9.00;7.25;4.50
68698;PMS7003;55680;48.850;2.310;2023-04-24T10:01:33;6.25;5.50;4.25
68698;PMS7003;55680;48.850;2.310;2023-04-24T10:03:59;6.25;3.00;3.00
68698;PMS7003;55680;48.850;2.310;2023-04-24T10:06:32;8.00;8.00;5.00
68698;PMS7003;55680;48.850;2.310;2023-04-24T10:08:58;5.00;3.50;2.00
68698;PMS7003;55680;48.850;2.310;2023-04-24T10:11:26;5.50;2.25;1.25
68698;PMS7003;55680;48.850;2.310;2023-04-24T10:13:51;3.00;2.00;1.75
68698;PMS7003;55680;48.850;2.310;2023-04-24T10:16:17;5.00;3.00;1.75
68698;PMS7003;55680;48.850;2.310;2023-04-24T10:18:43;6.25;6.25;4.50
68698;PMS7003;55680;48.850;2.310;2023-04-24T10:21:09;3.75;3.75;3.25
68698;PMS7003;55680;48.850;2.310;2023-04-24T10:23:34;6.25;6.25;5.00
68698;PMS7003;55680;48.850;2.310;2023-04-24T10:26:00;12.50;8.75;6.00
68698;PMS7003;55680;48.850;2.310;2023-04-24T10:28:26;7.50;7.50;5.00
68698;PMS7003;55680;48.850;2.310;2023-04-24T10:30:53;10.75;9.25;6.25
68698;PMS7003;55680;48.850;2.310;2023-04-24T10:33:20;7.75;7.75;5.50
68698;PMS7003;55680;48.850;2.310;2023-04-24T10:35:47;9.25;7.50;5.25
68698;PMS7003;55680;48.850;2.310;2023-04-24T10:38:14;8.25;7.25;5.50
68698;PMS7003;55680;48.850;2.310;2023-04-24T10:40:42;9.25;9.25;5.50
68698;PMS7003;55680;48.850;2.310;2023-04-24T10:43:09;7.50;7.50;6.00
68698;PMS7003;55680;48.850;2.310;2023-04-24T10:45:37;9.00;8.25;6.00
68698;PMS7003;55680;48.850;2.310;2023-04-24T10:48:04;8.75;7.00;4.25
68698;PMS7003;55680;48.850;2.310;2023-04-24T10:50:44;10.50;9.25;6.25
68698;PMS7003;55680;48.850;2.310;2023-04-24T10:53:17;8.75;8.75;6.75
68698;PMS7003;55680;48.850;2.310;2023-04-24T10:55:44;8.00;6.50;5.00
68698;PMS7003;55680;48.850;2.310;2023-04-24T10:58:11;8.25;5.50;4.00
68698;PMS7003;55680;48.850;2.310;2023-04-24T11:00:38;9.50;7.75;6.50
68698;PMS7003;55680;48.850;2.310;2023-04-24T11:03:05;9.75;9.75;6.00
68698;PMS7003;55680;48.850;2.310;2023-04-24T11:05:50;8.50;7.25;5.75
68698;PMS7003;55680;48.850;2.310;2023-04-24T11:08:28;7.75;5.00;3.75
68698;PMS7003;55680;48.850;2.310;2023-04-24T11:10:59;6.50;6.50;4.00
68698;PMS7003;55680;48.850;2.310;2023-04-24T11:19:06;6.50;4.00;3.50
68698;PMS7003;55680;48.850;2.310;2023-04-24T11:22:02;6.25;5.75;4.00
68698;PMS7003;55680;48.850;2.310;2023-04-24T11:24:31;7.50;7.50;4.50
68698;PMS7003;55680;48.850;2.310;2023-04-24T11:37:26;6.50;5.75;4.50
68698;PMS7003;55680;48.850;2.310;2023-04-24T11:39:54;3.50;3.00;2.00
68698;PMS7003;55680;48.850;2.310;2023-04-24T11:42:21;4.25;4.25;3.50
68698;PMS7003;55680;48.850;2.310;2023-04-24T11:44:47;8.25;6.00;5.00
68698;PMS7003;55680;48.850;2.310;2023-04-24T11:47:13;6.50;6.50;4.25
68698;PMS7003;55680;48.850;2.310;2023-04-24T11:49:38;3.00;3.00;1.25
68698;PMS7003;55680;48.850;2.310;2023-04-24T11:52:04;9.50;6.25;4.50
68698;PMS7003;55680;48.850;2.310;2023-04-24T11:54:30;6.75;6.75;3.75
68698;PMS7003;55680;48.850;2.310;2023-04-24T11:56:55;2.00;2.00;1.25
68698;PMS7003;55680;48.850;2.310;2023-04-24T11:59:21;6.00;6.00;4.25
68698;PMS7003;55680;48.850;2.310;2023-04-24T12:01:47;7.25;6.00;3.75
68698;PMS7003;55680;48.850;2.310;2023-04-24T12:04:14;4.50;4.50;3.00
68698;PMS7003;55680;48.850;2.310;2023-04-24T12:06:40;5.75;4.50;3.25
68698;PMS7003;55680;48.850;2.310;2023-04-24T12:09:24;4.00;4.00;3.25
68698;PMS7003;55680;48.850;2.310;2023-04-24T12:11:53;3.50;3.50;2.75
68698;PMS7003;55680;48.850;2.310;2023-04-24T12:14:21;2.50;2.50;2.50
68698;PMS7003;55680;48.850;2.310;2023-04-24T12:16:48;3.25;3.25;2.50
68698;PMS7003;55680;48.850;2.310;2023-04-24T12:19:22;3.75;3.75;2.50
68698;PMS7003;55680;48.850;2.310;2023-04-24T12:22:01;4.50;3.50;2.50
68698;PMS7003;55680;48.850;2.310;2023-04-24T12:24:30;4.50;3.75;2.00
68698;PMS7003;55680;48.850;2.310;2023-04-24T12:26:55;2.75;2.75;2.00
68698;PMS7003;55680;48.850;2.310;2023-04-24T12:29:21;2.25;2.25;1.50
68698;PMS7003;55680;48.850;2.310;2023-04-24T12:31:47;2.50;2.50;2.50
68698;PMS7003;55680;48.850;2.310;2023-04-24T12:34:23;3.50;3.50;2.75
68698;PMS7003;55680;48.850;2.310;2023-04-24T12:36:51;1.00;1.00;0.50
68698;PMS7003;55680;48.850;2.310;2023-04-24T12:39:20;5.75;3.25;2.50
68698;PMS7003;55680;48.850;2.310;2023-04-24T12:41:57;2.25;2.25;2.00
68698;PMS7003;55680;48.850;2.310;2023-04-24T12:44:30;3.50;3.50;2.25
68698;PMS7003;55680;48.850;2.310;2023-04-24T12:46:56;6.00;3.00;2.00
68698;PMS7003;55680;48.850;2.310;2023-04-24T12:49:22;3.00;2.00;1.75
68698;PMS7003;55680;48.850;2.310;2023-04-24T12:51:48;1.50;1.50;1.00
68698;PMS7003;55680;48.850;2.310;2023-04-24T12:54:13;4.00;2.00;2.00
68698;PMS7003;55680;48.850;2.310;2023-04-24T12:56:39;1.00;1.00;1.00
68698;PMS7003;55680;48.850;2.310;2023-04-24T12:59:04;2.75;2.75;2.50
68698;PMS7003;55680;48.850;2.310;2023-04-24T13:01:30;4.50;3.75;2.00
68698;PMS7003;55680;48.850;2.310;2023-04-24T13:03:55;2.50;1.50;1.00
68698;PMS7003;55680;48.850;2.310;2023-04-24T13:06:21;3.75;3.75;2.00
68698;PMS7003;55680;48.850;2.310;2023-04-24T13:08:46;5.75;3.75;2.00
68698;PMS7003;55680;48.850;2.310;2023-04-24T13:11:12;3.50;1.75;1.50
68698;PMS7003;55680;48.850;2.310;2023-04-24T13:13:38;3.00;3.00;2.00
68698;PMS7003;55680;48.850;2.310;2023-04-24T13:16:03;4.75;3.50;2.00
68698;PMS7003;55680;48.850;2.310;2023-04-24T13:18:29;4.00;2.00;2.00
68698;PMS7003;55680;48.850;2.310;2023-04-24T13:20:55;3.00;3.00;2.00
68698;PMS7003;55680;48.850;2.310;2023-04-24T13:23:20;3.50;2.50;2.00
68698;PMS7003;55680;48.850;2.310;2023-04-24T13:25:46;3.25;2.00;1.50
68698;PMS7003;55680;48.850;2.310;2023-04-24T13:28:12;5.50;2.75;2.00
68698;PMS7003;55680;48.850;2.310;2023-04-24T13:30:37;0.00;0.00;0.00
68698;PMS7003;55680;48.850;2.310;2023-04-24T13:33:03;0.25;0.25;0.00
68698;PMS7003;55680;48.850;2.310;2023-04-24T13:35:28;2.00;2.00;1.00
68698;PMS7003;55680;48.850;2.310;2023-04-24T13:37:54;1.00;1.00;1.00
68698;PMS7003;55680;48.850;2.310;2023-04-24T13:40:19;1.00;1.00;1.00
68698;PMS7003;55680;48.850;2.310;2023-04-24T13:42:44;2.00;2.00;1.00
68698;PMS7003;55680;48.850;2.310;2023-04-24T13:45:10;0.25;0.25;0.00
68698;PMS7003;55680;48.850;2.310;2023-04-24T13:47:35;1.00;1.00;1.00
68698;PMS7003;55680;48.850;2.310;2023-04-24T13:50:01;0.50;0.50;0.25
68698;PMS7003;55680;48.850;2.310;2023-04-24T13:52:27;3.00;2.00;1.00
68698;PMS7003;55680;48.850;2.310;2023-04-24T13:54:52;2.00;0.50;0.50
68698;PMS7003;55680;48.850;2.310;2023-04-24T13:57:17;1.50;1.00;1.00
68698;PMS7003;55680;48.850;2.310;2023-04-24T13:59:43;1.50;1.50;1.00
68698;PMS7003;55680;48.850;2.310;2023-04-24T14:02:08;2.00;2.00;1.00
68698;PMS7003;55680;48.850;2.310;2023-04-24T14:04:33;1.50;1.50;1.00
68698;PMS7003;55680;48.850;2.310;2023-04-24T14:06:59;0.50;0.50;0.00
68698;PMS7003;55680;48.850;2.310;2023-04-24T14:09:25;2.00;2.00;2.00
68698;PMS7003;55680;48.850;2.310;2023-04-24T14:11:51;3.00;3.00;2.00
68698;PMS7003;55680;48.850;2.310;2023-04-24T14:14:16;3.25;3.00;1.50
68698;PMS7003;55680;48.850;2.310;2023-04-24T14:16:42;2.00;2.00;2.00
68698;PMS7003;55680;48.850;2.310;2023-04-24T14:19:07;1.00;1.00;1.00
68698;PMS7003;55680;48.850;2.310;2023-04-24T14:21:33;1.75;1.75;1.00
68698;PMS7003;55680;48.850;2.310;2023-04-24T14:23:58;1.50;0.00;0.00
68698;PMS7003;55680;48.850;2.310;2023-04-24T14:26:23;2.00;1.00;1.00
68698;PMS7003;55680;48.850;2.310;2023-04-24T14:28:50;1.75;1.75;1.75
68698;PMS7003;55680;48.850;2.310;2023-04-24T14:31:15;2.25;1.00;1.00